Relevés horaires Beauvechain (Belgique)


Relevés horaires à Beauvechain - Lundi 20 Mars 2017
Heure UTC1 Température [°C] Vent [km/h] Hum. [%] Pres.4 [hPa] Visi. [Km] Nébu. [octa] Préc.5 [mm] Cond.
2m. Res. Ros. Dir.2 Vit. Moy. Raf.3
23:00 9.9 7.8 7.3 SO 14.8 -- 24.1 84 1007.1(0.0/3h) 9 -- -- Il y a de la pluie faible et continue à la station au moment de l'observation
22:00 10.3 8.1 6.7 SO 16.7 -- 25.9 78 1007(-0.1/3h) 20 -- -- --
21:00 10.8 8.9 5.7 SSO 14.8 -- 24.1 71 1007(-0.3/3h) 20 5/8 -- --
20:00 10.6 8.7 6.0 SSO 14.8 -- 22.2 73 1007.1(-0.5/3h) 20 5/8 -- --
19:00 10.6 8.7 6.3 SO 14.8 -- 25.9 75 1007.2(-0.2/3h) 20 5/8 -- --
18:00 10.6 8.5 6.6 SO 16.7 -- 27.8 76 1007.2(-0.5/3h) 20 5/8 -- --
17:00 10.4 8.7 7.1 SSO 13.0 -- 27.8 80 1007.7(-0.5/3h) 20 7/8 -- --
16:00 10.5 8.3 6.9 SSO 16.7 -- 27.8 78 1007.7(-0.4/3h) 20 7/8 -- --
15:00 10.3 8.1 7.0 SSO 16.7 -- 25.9 80 1007.8(-1.0/3h) 20 7/8 -- --
14:00 10.8 8.5 6.9 SSO 18.5 -- 25.9 77 1008.2(-0.9/3h) 20 7/8 -- --
12:00 11.8 10 5.9 SO 16.7 -- 31.5 67 1008.8(-0.5/3h) 20 7/8 -- --
11:00 11.7 9.7 5.8 SSO 18.5 -- 31.5 67 1009(-0.7/3h) 20 5/8 -- --
10:00 12.0 10.4 6.4 SO 14.8 -- 25.9 69 1009.3(-0.8/3h) 20 5/8 -- --
09:00 10.9 8.7 6.2 SSO 18.5 -- 24.1 73 1009.3(-0.8/3h) 20 5/8 -- --
08:00 9.1 6.6 6.9 SO 16.7 -- 24.1 86 1009.8(-0.2/3h) 15 7/8 -- --
07:00 9.5 7.3 6.7 SO 14.8 -- 22.2 83 1010.2(0.1/3h) 6 7/8 -- --
06:00 9.6 7.7 6.4 SO 13.0 -- 22.2 80 1010.2(0.0/3h) 20 7/8 -- --
05:00 9.8 7.9 6.5 SO 13.0 -- 20.4 80 1010(-0.3/3h) 20 -- -- --
04:00 9.8 7.9 6.3 SO 13.0 -- 20.4 79 1010.1(-0.6/3h) 20 -- -- --
03:00 9.8 7.7 5.8 SO 14.8 -- 22.2 76 1010.2(-0.7/3h) 20 -- -- --
02:00 10.1 8.3 5.7 SO 13.0 -- 22.2 74 1010.3(-0.7/3h) 20 -- -- --
01:00 10.1 8.3 5.6 SO 13.0 -- 18.5 74 1010.7(-0.5/3h) 20 -- -- --
00:00 10.3 8.5 6.0 SO 13.0 -- 24.1 75 1010.8(0.0/3h) 20 -- -- --

1 Coordinated Universal Time. Actuellement il est 23:00 locale et 22:00 UTC.

2 Le vent souffle depuis la direction indiquée vers la direction oposée.

3 Les rafales max. sont disponible 40 min après l'heure du relevé.

4 Pour les stations d'altitude (plus de 600m) le géopotentiel du niveau le plus proche de la pression obligatoire est indiqué.

5 Les stations disposant d'un diffuseur peuvent indiquer "trace". Cela signifie que des précipitations ont touchés le sol mais que la quantité est inférieure à 0.1 mm.

Récapitulatif de la journée
Température [°C] Vent [km/h] Ensoleillement4 [h] Precipitations totale5 [mm] Pression [Hpa]
Min1 Max.2 Moy.3 Max. Min Max.
9.6 12.2 0 31.5 0 h 0 min 0 1007.0 1010.8

1 Température minimale relevée entre 18:00 UTC la veille et 18:00 UTC le jour donné.

2 Température maximale relevée entre 06:00 UTC le jour donné et 06:00 UTC le lendemain.

3 Vent moyen de la journée basé sur les relevés horaires.

4 Ensoleillement en heures relevé entre 06:00 UTC la veille et 06:00 UTC le jour donné.

5 Précipitations totales tombées entre 06:00 UTC la jour donné et 06:00 UTC le lendemain.

Graphiques horaires